Time,TemperatureF,DewpointF,PressureIn,WindDirection,WindDirectionDegrees,WindSpeedMPH,WindSpeedGustMPH,Humidity,HourlyPrecipIn,Conditions,Clouds,dailyrainin,SolarRadiationWatts/m^2,SoftwareType,DateUTC
2013-04-19 00:01:00,67.2,55.9,30.04,ESE,112,6.0,13.0,67,0.00,FEW,SCT,0.00,0.0,WeatherDisplay:10.37,2013-04-19 10:01:00,
2013-04-19 00:11:00,67.5,56.5,30.03,ESE,121,3.0,13.0,68,0.00,CLR,SCT,0.00,0.0,WeatherDisplay:10.37,2013-04-19 10:11:00,
2013-04-19 00:21:00,66.9,56.8,30.02,ESE,110,6.0,10.0,70,0.00,CLR,SCT,0.00,0.0,WeatherDisplay:10.37,2013-04-19 10:21:00,
2013-04-19 00:31:00,66.6,56.5,30.02,ESE,102,6.0,13.0,70,0.00,CLR,SCT,0.00,0.0,WeatherDisplay:10.37,2013-04-19 10:31:00,
2013-04-19 00:41:00,66.6,56.2,30.02,ESE,102,3.0,13.0,69,0.00,CLR,SCT,0.00,0.0,WeatherDisplay:10.37,2013-04-19 10:41:00,
2013-04-19 00:51:00,66.5,55.2,30.01,ESE,120,3.0,10.0,67,0.00,CLR,SCT,0.00,0.0,WeatherDisplay:10.37,2013-04-19 10:51:00,
2013-04-19 01:01:00,66.4,54.7,30.01,East,101,8.0,12.0,66,0.00,CLR,SCT,0.00,0.0,WeatherDisplay:10.37,2013-04-19 11:01:00,
2013-04-19 01:11:00,66.5,53.9,30.01,SE,124,2.0,12.0,64,0.00,CLR,SCT,0.00,0.0,WeatherDisplay:10.37,2013-04-19 11:11:00,
2013-04-19 01:21:00,66.3,55.0,30.01,East,96,3.0,12.0,67,0.00,CLR,SCT,0.00,0.0,WeatherDisplay:10.37,2013-04-19 11:21:00,
2013-04-19 01:31:00,66.0,54.7,30.01,ESE,107,2.0,8.0,67,0.00,CLR,SCT,0.00,0.0,WeatherDisplay:10.37,2013-04-19 11:31:00,
2013-04-19 01:41:00,65.5,54.2,30.01,SE,136,2.0,6.0,67,0.00,CLR,SCT,0.00,0.0,WeatherDisplay:10.37,2013-04-19 11:41:00,
2013-04-19 01:51:00,64.8,58.5,30.00,SSW,197,0.0,6.0,80,0.00,CLR,SCT,0.00,0.0,WeatherDisplay:10.37,2013-04-19 11:51:00,
2013-04-19 02:01:00,64.1,58.5,30.00,NE,48,2.0,6.0,82,0.00,CLR,SCT,0.00,0.0,WeatherDisplay:10.37,2013-04-19 12:01:00,
2013-04-19 02:11:00,64.0,56.0,29.99,NE,42,5.0,8.0,75,0.00,CLR,SCT,0.00,0.0,WeatherDisplay:10.37,2013-04-19 12:11:00,
2013-04-19 02:21:00,64.2,56.8,29.99,SE,137,2.0,16.0,77,0.00,CLR,SCT,0.00,0.0,WeatherDisplay:10.37,2013-04-19 12:21:00,
2013-04-19 02:31:00,63.6,56.9,29.99,SE,143,0.0,16.0,79,0.00,CLR,SCT,0.00,0.0,WeatherDisplay:10.37,2013-04-19 12:31:00,
2013-04-19 02:41:00,63.0,56.7,29.99,SE,143,0.0,16.0,80,0.00,CLR,SCT,0.00,0.0,WeatherDisplay:10.37,2013-04-19 12:41:00,
2013-04-19 02:51:00,62.5,56.3,29.98,SE,143,0.0,16.0,80,0.00,CLR,SCT,0.00,0.0,WeatherDisplay:10.37,2013-04-19 12:51:00,
2013-04-19 03:01:00,62.4,57.1,29.98,SE,143,0.0,16.0,83,0.00,CLR,SCT,0.00,0.0,WeatherDisplay:10.37,2013-04-19 13:01:00,
2013-04-19 03:11:00,62.3,57.4,29.98,SE,135,1.0,16.0,84,0.00,CLR,SCT,0.00,0.0,WeatherDisplay:10.37,2013-04-19 13:11:00,
2013-04-19 03:21:00,62.2,57.3,29.98,SE,135,0.0,3.0,84,0.00,CLR,SCT,0.00,0.0,WeatherDisplay:10.37,2013-04-19 13:21:00,
2013-04-19 03:31:00,61.9,57.0,29.98,SE,135,0.0,3.0,84,0.00,CLR,SCT,0.00,0.0,WeatherDisplay:10.37,2013-04-19 13:31:00,
2013-04-19 03:41:00,61.4,57.2,29.98,SSE,159,1.0,16.0,86,0.00,CLR,SCT,0.00,0.0,WeatherDisplay:10.37,2013-04-19 13:41:00,
2013-04-19 03:51:00,61.4,57.5,29.98,South,169,2.0,4.0,87,0.00,CLR,SCT,0.00,0.0,WeatherDisplay:10.37,2013-04-19 13:51:00,
2013-04-19 04:01:00,61.3,57.1,29.98,SSE,167,0.0,16.0,86,0.00,CLR,SCT,0.00,0.0,WeatherDisplay:10.37,2013-04-19 14:01:00,
2013-04-19 04:11:00,61.1,56.6,29.99,ESE,123,2.0,16.0,85,0.00,CLR,SCT,0.00,0.0,WeatherDisplay:10.37,2013-04-19 14:11:00,
2013-04-19 04:21:00,61.4,56.5,29.98,ESE,103,0.0,16.0,84,0.00,CLR,SCT,0.00,0.0,WeatherDisplay:10.37,2013-04-19 14:21:00,
2013-04-19 04:31:00,61.4,56.5,29.98,East,101,0.0,3.0,84,0.00,CLR,SCT,0.00,0.0,WeatherDisplay:10.37,2013-04-19 14:31:00,
2013-04-19 04:41:00,61.1,56.2,29.98,East,101,0.0,16.0,84,0.00,CLR,SCT,0.00,0.0,WeatherDisplay:10.37,2013-04-19 14:41:00,
2013-04-19 04:51:00,61.0,56.1,29.98,ESE,106,0.0,4.0,84,0.00,CLR,SCT,0.00,0.0,WeatherDisplay:10.37,2013-04-19 14:51:00,
2013-04-19 05:01:00,61.1,56.2,29.98,ESE,113,0.0,4.0,84,0.00,CLR,SCT,0.00,0.0,WeatherDisplay:10.37,2013-04-19 15:01:00,
2013-04-19 05:11:00,60.9,56.0,29.98,ESE,115,0.0,4.0,84,0.00,CLR,SCT,0.00,0.0,WeatherDisplay:10.37,2013-04-19 15:11:00,
2013-04-19 05:21:00,60.8,55.9,29.98,ESE,116,0.0,4.0,84,0.00,CLR,SCT,0.00,0.0,WeatherDisplay:10.37,2013-04-19 15:21:00,
2013-04-19 05:31:00,61.0,55.8,29.98,ESE,117,0.0,2.0,83,0.00,CLR,SCT,0.00,0.0,WeatherDisplay:10.37,2013-04-19 15:31:00,
2013-04-19 05:41:00,60.8,55.6,29.99,ESE,115,0.0,16.0,83,0.00,CLR,SCT,0.00,0.0,WeatherDisplay:10.37,2013-04-19 15:41:00,
2013-04-19 05:51:00,60.4,55.6,29.99,ESE,115,1.0,3.0,84,0.00,CLR,SCT,0.00,0.0,WeatherDisplay:10.37,2013-04-19 15:51:00,
2013-04-19 06:01:00,60.5,56.0,30.00,ESE,115,2.0,4.0,85,0.00,CLR,SCT,0.00,0.0,WeatherDisplay:10.37,2013-04-19 16:01:00,
2013-04-19 06:11:00,60.8,56.3,30.00,ESE,115,1.0,16.0,85,0.00,CLR,SCT,0.00,0.0,WeatherDisplay:10.37,2013-04-19 16:11:00,
2013-04-19 06:21:00,61.2,56.7,30.00,East,101,0.0,16.0,85,0.00,CLR,SCT,0.00,0.0,WeatherDisplay:10.37,2013-04-19 16:21:00,
2013-04-19 06:31:00,61.2,56.3,30.00,ESE,105,0.0,16.0,84,0.00,CLR,SCT,0.00,0.1,WeatherDisplay:10.37,2013-04-19 16:31:00,
2013-04-19 06:41:00,61.0,56.2,30.01,ESE,105,0.0,2.0,84,0.00,CLR,SCT,0.00,0.3,WeatherDisplay:10.37,2013-04-19 16:41:00,
2013-04-19 06:51:00,60.9,56.4,30.01,ESE,108,0.0,16.0,85,0.00,CLR,SCT,0.00,1.2,WeatherDisplay:10.37,2013-04-19 16:51:00,
2013-04-19 07:01:00,61.2,56.7,30.01,ESE,111,0.0,16.0,85,0.00,CLR,SCT,0.00,1.2,WeatherDisplay:10.37,2013-04-19 17:01:00,
2013-04-19 07:11:00,61.8,57.2,30.01,ESE,111,0.0,1.0,85,0.00,CLR,SCT,0.00,4.4,WeatherDisplay:10.37,2013-04-19 17:11:00,
2013-04-19 07:21:00,62.7,58.1,30.01,ESE,111,0.0,0.0,85,0.00,CLR,SCT,0.00,4.7,WeatherDisplay:10.37,2013-04-19 17:21:00,
2013-04-19 07:31:00,64.1,60.5,30.01,ESE,111,0.0,16.0,88,0.00,CLR,SCT,0.00,12.5,WeatherDisplay:10.37,2013-04-19 17:31:00,
2013-04-19 07:41:00,65.5,60.8,30.02,ESE,111,1.0,16.0,85,0.00,CLR,SCT,0.00,15.9,WeatherDisplay:10.37,2013-04-19 17:41:00,
2013-04-19 07:51:00,66.8,60.1,30.02,ESE,111,0.0,3.0,79,0.00,CLR,SCT,0.00,12.2,WeatherDisplay:10.37,2013-04-19 17:51:00,
2013-04-19 08:01:00,68.1,61.0,30.02,SE,133,0.0,5.0,78,0.00,CLR,SCT,0.00,29.9,WeatherDisplay:10.37,2013-04-19 18:01:00,
2013-04-19 08:11:00,69.1,61.6,30.02,ESE,122,3.0,16.0,77,0.00,CLR,SCT,0.00,51.6,WeatherDisplay:10.37,2013-04-19 18:11:00,
2013-04-19 08:21:00,69.9,62.7,30.02,ESE,103,0.0,16.0,78,0.00,CLR,SCT,0.00,46.1,WeatherDisplay:10.37,2013-04-19 18:21:00,
2013-04-19 08:31:00,70.5,64.4,30.02,NE,53,1.0,5.0,81,0.00,CLR,SCT,0.00,60.5,WeatherDisplay:10.37,2013-04-19 18:31:00,
2013-04-19 08:41:00,70.9,64.8,30.02,NE,55,0.0,16.0,81,0.00,CLR,SCT,0.00,82.7,WeatherDisplay:10.37,2013-04-19 18:41:00,
2013-04-19 08:51:00,71.5,62.8,30.03,ENE,58,0.0,2.0,74,0.00,CLR,SCT,0.00,120.1,WeatherDisplay:10.37,2013-04-19 18:51:00,
2013-04-19 09:01:00,72.2,64.2,30.03,East,88,3.0,12.0,76,0.00,CLR,SCT,0.00,149.6,WeatherDisplay:10.37,2013-04-19 19:01:00,
2013-04-19 09:11:00,73.1,65.5,30.02,ESE,116,0.0,8.0,77,0.00,SCT,SCT,0.00,106.5,WeatherDisplay:10.37,2013-04-19 19:11:00,
2013-04-19 09:21:00,73.3,63.3,30.03,South,190,5.0,13.0,71,0.00,SCT,SCT,0.00,450.4,WeatherDisplay:10.37,2013-04-19 19:21:00,
2013-04-19 09:31:00,74.7,65.1,30.03,ESE,105,7.0,16.0,72,0.00,SCT,SCT,0.00,180.0,WeatherDisplay:10.37,2013-04-19 19:31:00,
2013-04-19 09:41:00,74.8,64.8,30.03,SE,129,6.0,12.0,71,0.00,SCT,SCT,0.00,256.4,WeatherDisplay:10.37,2013-04-19 19:41:00,
2013-04-19 09:51:00,74.7,65.5,30.03,East,95,9.0,14.0,73,0.00,SCT,SCT,0.00,285.9,WeatherDisplay:10.37,2013-04-19 19:51:00,
2013-04-19 10:01:00,74.2,66.1,30.03,East,89,7.0,16.0,76,0.00,SCT,SCT,0.00,194.3,WeatherDisplay:10.37,2013-04-19 20:01:00,
2013-04-19 10:11:00,73.8,65.3,30.03,ESE,106,6.0,16.0,75,0.00,SCT,SCT,0.00,306.0,WeatherDisplay:10.37,2013-04-19 20:11:00,
2013-04-19 10:21:00,73.4,64.6,30.03,East,101,7.0,10.0,74,0.00,SCT,SCT,0.00,374.1,WeatherDisplay:10.37,2013-04-19 20:21:00,
2013-04-19 10:31:00,73.2,64.8,30.03,ENE,70,3.0,9.0,75,0.00,SCT,SCT,0.00,373.5,WeatherDisplay:10.37,2013-04-19 20:31:00,
2013-04-19 10:41:00,73.3,63.7,30.03,ENE,75,1.0,16.0,72,0.00,SCT,SCT,0.00,276.1,WeatherDisplay:10.37,2013-04-19 20:41:00,
2013-04-19 10:51:00,73.5,65.5,30.03,East,80,10.0,15.0,76,0.00,SCT,SCT,0.00,367.7,WeatherDisplay:10.37,2013-04-19 20:51:00,
2013-04-19 11:01:00,72.2,66.4,30.03,East,100,6.0,13.0,82,0.01,RA,SCT,0.01,401.1,WeatherDisplay:10.37,2013-04-19 21:01:00,
2013-04-19 11:11:00,71.6,66.8,30.02,ENE,73,5.0,16.0,85,0.00,FEW,SCT,0.01,366.2,WeatherDisplay:10.37,2013-04-19 21:11:00,
2013-04-19 11:21:00,71.5,66.4,30.02,East,81,6.0,16.0,84,0.00,FEW,SCT,0.01,346.5,WeatherDisplay:10.37,2013-04-19 21:21:00,
2013-04-19 11:31:00,71.2,66.5,30.02,East,92,6.0,16.0,85,0.00,FEW,SCT,0.01,308.7,WeatherDisplay:10.37,2013-04-19 21:31:00,
2013-04-19 11:41:00,70.9,65.8,30.02,SE,141,2.0,8.0,84,0.00,FEW,SCT,0.01,304.2,WeatherDisplay:10.37,2013-04-19 21:41:00,
2013-04-19 11:51:00,70.8,65.4,30.02,SE,124,7.0,22.0,83,0.03,RA,SCT,0.04,368.6,WeatherDisplay:10.37,2013-04-19 21:51:00,
2013-04-19 12:01:00,70.5,66.1,30.02,East,98,7.0,12.0,86,0.01,RA,SCT,0.05,384.9,WeatherDisplay:10.37,2013-04-19 22:01:00,
2013-04-19 12:11:00,70.5,66.1,30.01,East,92,9.0,14.0,86,0.00,FEW,SCT,0.05,412.4,WeatherDisplay:10.37,2013-04-19 22:11:00,
2013-04-19 12:21:00,70.6,66.6,30.01,East,88,7.0,10.0,87,0.01,RA,SCT,0.06,372.4,WeatherDisplay:10.37,2013-04-19 22:21:00,
2013-04-19 12:31:00,70.5,66.4,30.00,East,85,7.0,22.0,87,0.00,BKN,SCT,0.06,414.3,WeatherDisplay:10.37,2013-04-19 22:31:00,
2013-04-19 12:41:00,70.9,66.8,30.00,East,84,8.0,13.0,87,0.00,BKN,SCT,0.06,430.6,WeatherDisplay:10.37,2013-04-19 22:41:00,
2013-04-19 12:51:00,70.6,66.5,30.00,East,80,7.0,22.0,87,0.00,BKN,SCT,0.06,387.0,WeatherDisplay:10.37,2013-04-19 22:51:00,
2013-04-19 13:01:00,70.2,65.5,30.00,East,88,7.0,22.0,85,0.00,BKN,SCT,0.06,393.6,WeatherDisplay:10.37,2013-04-19 23:01:00,
2013-04-19 13:11:00,70.3,66.3,29.99,East,82,8.0,16.0,87,0.00,BKN,SCT,0.06,439.0,WeatherDisplay:10.37,2013-04-19 23:11:00,
2013-04-19 13:21:00,70.7,66.7,29.98,East,79,7.0,22.0,87,0.00,SCT,SCT,0.06,371.5,WeatherDisplay:10.37,2013-04-19 23:21:00,
2013-04-19 13:31:00,70.6,65.5,29.98,East,86,6.0,13.0,84,0.00,SCT,SCT,0.06,386.1,WeatherDisplay:10.37,2013-04-19 23:31:00,
2013-04-19 13:41:00,71.2,66.1,29.97,East,81,9.0,22.0,84,0.00,SCT,SCT,0.06,391.4,WeatherDisplay:10.37,2013-04-19 23:41:00,
2013-04-19 13:51:00,70.8,65.0,29.97,East,89,7.0,22.0,82,0.00,SCT,SCT,0.06,401.1,WeatherDisplay:10.37,2013-04-19 23:51:00,
2013-04-19 14:01:00,71.9,66.5,29.96,ENE,78,12.0,21.0,83,0.00,SCT,SCT,0.06,368.4,WeatherDisplay:10.37,2013-04-20 00:01:00,
2013-04-19 14:11:00,70.7,65.7,29.96,East,86,12.0,22.0,84,0.00,SCT,SCT,0.06,347.2,WeatherDisplay:10.37,2013-04-20 00:11:00,
2013-04-19 14:21:00,70.1,64.6,29.96,East,88,9.0,20.0,83,0.00,SCT,SCT,0.06,182.1,WeatherDisplay:10.37,2013-04-20 00:21:00,
2013-04-19 14:31:00,69.7,64.6,29.96,East,87,8.0,25.0,84,0.00,SCT,SCT,0.06,116.9,WeatherDisplay:10.37,2013-04-20 00:31:00,
2013-04-19 14:41:00,69.4,64.4,29.96,East,87,10.0,18.0,84,0.00,SCT,SCT,0.06,95.6,WeatherDisplay:10.37,2013-04-20 00:41:00,
2013-04-19 14:51:00,68.8,64.1,29.96,East,86,14.0,22.0,85,0.00,SCT,SCT,0.06,105.0,WeatherDisplay:10.37,2013-04-20 00:51:00,
2013-04-19 15:01:00,68.4,64.4,29.96,East,100,7.0,15.0,87,0.02,RA,SCT,0.08,136.2,WeatherDisplay:10.37,2013-04-20 01:01:00,
2013-04-19 15:11:00,68.3,64.3,29.96,East,88,9.0,15.0,87,0.01,RA,SCT,0.09,81.8,WeatherDisplay:10.37,2013-04-20 01:11:00,
2013-04-19 15:21:00,68.1,64.1,29.96,East,86,7.0,20.0,87,0.00,SCT,SCT,0.09,113.5,WeatherDisplay:10.37,2013-04-20 01:21:00,
2013-04-19 15:31:00,68.5,64.1,29.95,East,86,9.0,18.0,86,0.00,SCT,SCT,0.09,76.5,WeatherDisplay:10.37,2013-04-20 01:31:00,
2013-04-19 15:41:00,68.5,63.8,29.95,East,92,8.0,17.0,85,0.00,SCT,SCT,0.09,60.0,WeatherDisplay:10.37,2013-04-20 01:41:00,
2013-04-19 15:51:00,68.5,63.8,29.95,East,97,8.0,16.0,85,0.00,SCT,SCT,0.09,41.6,WeatherDisplay:10.37,2013-04-20 01:51:00,
2013-04-19 16:01:00,68.5,63.5,29.95,East,87,9.0,20.0,84,0.00,SCT,SCT,0.09,39.1,WeatherDisplay:10.37,2013-04-20 02:01:00,
2013-04-19 16:11:00,68.6,63.9,29.96,East,92,10.0,18.0,85,0.00,SCT,SCT,0.09,32.0,WeatherDisplay:10.37,2013-04-20 02:11:00,
2013-04-19 16:21:00,68.5,63.5,29.95,East,98,8.0,16.0,84,0.00,SCT,SCT,0.09,29.7,WeatherDisplay:10.37,2013-04-20 02:21:00,
2013-04-19 16:31:00,68.3,63.3,29.96,East,82,8.0,16.0,84,0.00,SCT,SCT,0.09,17.0,WeatherDisplay:10.37,2013-04-20 02:31:00,
2013-04-19 16:41:00,68.1,63.1,29.96,ESE,102,9.0,20.0,84,0.00,SCT,SCT,0.09,11.2,WeatherDisplay:10.37,2013-04-20 02:41:00,
2013-04-19 16:51:00,67.9,62.9,29.96,East,92,7.0,14.0,84,0.00,SCT,SCT,0.09,11.2,WeatherDisplay:10.37,2013-04-20 02:51:00,
2013-04-19 17:01:00,67.9,62.9,29.96,East,101,6.0,13.0,84,0.00,SCT,SCT,0.09,26.6,WeatherDisplay:10.37,2013-04-20 03:01:00,
2013-04-19 17:11:00,68.5,62.4,29.96,ESE,111,8.0,15.0,81,0.00,SCT,SCT,0.09,11.5,WeatherDisplay:10.37,2013-04-20 03:11:00,
2013-04-19 17:21:00,68.5,62.4,29.96,East,97,6.0,13.0,81,0.00,SCT,SCT,0.09,5.9,WeatherDisplay:10.37,2013-04-20 03:21:00,
2013-04-19 17:31:00,68.7,62.7,29.96,East,96,3.0,13.0,81,0.00,SCT,SCT,0.09,13.7,WeatherDisplay:10.37,2013-04-20 03:31:00,
2013-04-19 17:41:00,69.4,63.0,29.97,East,91,7.0,13.0,80,0.00,SCT,SCT,0.09,5.4,WeatherDisplay:10.37,2013-04-20 03:41:00,
2013-04-19 17:51:00,69.2,62.4,29.97,East,91,8.0,16.0,79,0.00,SCT,SCT,0.09,5.7,WeatherDisplay:10.37,2013-04-20 03:51:00,
2013-04-19 18:01:00,68.9,62.5,29.97,East,100,7.0,14.0,80,0.00,SCT,SCT,0.09,1.3,WeatherDisplay:10.37,2013-04-20 04:01:00,
2013-04-19 18:11:00,68.4,61.6,29.98,ESE,107,9.0,12.0,79,0.00,SCT,SCT,0.09,0.6,WeatherDisplay:10.37,2013-04-20 04:11:00,
2013-04-19 18:21:00,68.0,61.6,29.98,ESE,109,7.0,13.0,80,0.00,SCT,SCT,0.09,0.0,WeatherDisplay:10.37,2013-04-20 04:21:00,
2013-04-19 18:31:00,67.8,61.4,29.99,ESE,107,6.0,12.0,80,0.00,SCT,SCT,0.09,0.0,WeatherDisplay:10.37,2013-04-20 04:31:00,
2013-04-19 18:41:00,67.6,61.6,29.99,East,100,8.0,12.0,81,0.00,SCT,SCT,0.09,0.0,WeatherDisplay:10.37,2013-04-20 04:41:00,
2013-04-19 18:51:00,67.4,61.4,30.00,East,87,8.0,12.0,81,0.00,SCT,SCT,0.09,0.0,WeatherDisplay:10.37,2013-04-20 04:51:00,
2013-04-19 19:01:00,67.3,61.3,30.00,East,93,7.0,11.0,81,0.00,SCT,SCT,0.09,0.0,WeatherDisplay:10.37,2013-04-20 05:01:00,
2013-04-19 19:11:00,67.1,61.4,30.00,East,83,6.0,12.0,82,0.00,FEW,SCT,0.09,0.0,WeatherDisplay:10.37,2013-04-20 05:11:00,
2013-04-19 19:21:00,67.0,61.0,30.01,East,96,7.0,14.0,81,0.00,FEW,SCT,0.09,0.0,WeatherDisplay:10.37,2013-04-20 05:21:00,
2013-04-19 19:31:00,67.0,61.0,30.01,East,97,7.0,13.0,81,0.00,FEW,SCT,0.09,0.0,WeatherDisplay:10.37,2013-04-20 05:31:00,
2013-04-19 19:41:00,66.9,61.3,30.01,East,95,7.0,13.0,82,0.00,FEW,SCT,0.09,0.0,WeatherDisplay:10.37,2013-04-20 05:41:00,
2013-04-19 19:51:00,66.8,61.1,30.01,East,92,5.0,14.0,82,0.00,FEW,SCT,0.09,0.0,WeatherDisplay:10.37,2013-04-20 05:51:00,
2013-04-19 20:01:00,66.8,61.1,30.01,East,99,6.0,10.0,82,0.00,FEW,SCT,0.09,0.0,WeatherDisplay:10.37,2013-04-20 06:01:00,
2013-04-19 20:11:00,66.8,60.7,30.01,ESE,103,3.0,9.0,81,0.00,BKN,SCT,0.09,0.0,WeatherDisplay:10.37,2013-04-20 06:11:00,
2013-04-19 20:21:00,66.8,60.8,30.01,East,97,6.0,9.0,81,0.00,BKN,SCT,0.09,0.0,WeatherDisplay:10.37,2013-04-20 06:21:00,
2013-04-19 20:31:00,66.8,60.5,30.02,East,96,5.0,10.0,80,0.00,BKN,SCT,0.09,0.0,WeatherDisplay:10.37,2013-04-20 06:31:00,
2013-04-19 20:41:00,66.9,60.1,30.02,ESE,112,5.0,13.0,79,0.00,BKN,SCT,0.09,0.0,WeatherDisplay:10.37,2013-04-20 06:41:00,
2013-04-19 20:51:00,66.7,60.0,30.02,East,93,7.0,10.0,79,0.00,BKN,SCT,0.09,0.0,WeatherDisplay:10.37,2013-04-20 06:51:00,
2013-04-19 21:01:00,66.4,59.7,30.02,East,95,6.0,10.0,79,0.00,BKN,SCT,0.09,0.0,WeatherDisplay:10.37,2013-04-20 07:01:00,
2013-04-19 21:11:00,66.3,59.9,30.02,East,96,5.0,9.0,80,0.00,BKN,SCT,0.09,0.0,WeatherDisplay:10.37,2013-04-20 07:11:00,
2013-04-19 21:21:00,66.4,60.0,30.03,ESE,104,3.0,7.0,80,0.00,BKN,SCT,0.09,0.0,WeatherDisplay:10.37,2013-04-20 07:21:00,
2013-04-19 21:31:00,66.5,59.8,30.03,East,97,3.0,8.0,79,0.00,BKN,SCT,0.09,0.0,WeatherDisplay:10.37,2013-04-20 07:31:00,
2013-04-19 21:41:00,66.9,60.2,30.03,ESE,105,5.0,9.0,79,0.00,BKN,SCT,0.09,0.0,WeatherDisplay:10.37,2013-04-20 07:41:00,
2013-04-19 21:51:00,67.2,60.1,30.03,East,100,5.0,7.0,78,0.00,BKN,SCT,0.09,0.0,WeatherDisplay:10.37,2013-04-20 07:51:00,
2013-04-19 22:01:00,67.3,60.2,30.03,East,90,2.0,5.0,78,0.00,BKN,SCT,0.09,0.0,WeatherDisplay:10.37,2013-04-20 08:01:00,
2013-04-19 22:11:00,67.2,60.1,30.03,East,94,3.0,7.0,78,0.00,OVC,SCT,0.09,0.0,WeatherDisplay:10.37,2013-04-20 08:11:00,
2013-04-19 22:21:00,67.2,59.7,30.03,East,97,2.0,5.0,77,0.00,OVC,SCT,0.09,0.0,WeatherDisplay:10.37,2013-04-20 08:21:00,
2013-04-19 22:31:00,67.2,59.7,30.03,East,94,3.0,8.0,77,0.00,OVC,SCT,0.09,0.0,WeatherDisplay:10.37,2013-04-20 08:31:00,
2013-04-19 22:41:00,67.4,59.9,30.03,ESE,106,2.0,8.0,77,0.00,OVC,SCT,0.09,0.0,WeatherDisplay:10.37,2013-04-20 08:41:00,
2013-04-19 22:51:00,67.2,59.7,30.03,ESE,112,2.0,7.0,77,0.00,OVC,SCT,0.09,0.0,WeatherDisplay:10.37,2013-04-20 08:51:00,
2013-04-19 23:01:00,66.9,59.8,30.03,East,96,2.0,4.0,78,0.00,OVC,SCT,0.09,0.0,WeatherDisplay:10.37,2013-04-20 09:01:00,
2013-04-19 23:11:00,66.7,60.3,30.03,East,90,2.0,6.0,80,0.00,BKN,SCT,0.09,0.0,WeatherDisplay:10.37,2013-04-20 09:11:00,
2013-04-19 23:21:00,66.8,60.1,30.03,East,88,2.0,4.0,79,0.00,BKN,SCT,0.09,0.0,WeatherDisplay:10.37,2013-04-20 09:21:00,
2013-04-19 23:31:00,66.9,60.1,30.03,East,98,0.0,4.0,79,0.00,BKN,SCT,0.09,0.0,WeatherDisplay:10.37,2013-04-20 09:31:00,
2013-04-19 23:41:00,66.7,60.3,30.02,East,95,0.0,2.0,80,0.00,BKN,SCT,0.09,0.0,WeatherDisplay:10.37,2013-04-20 09:41:00,
2013-04-19 23:51:00,66.3,60.6,30.02,East,96,1.0,2.0,82,0.00,BKN,SCT,0.09,0.0,WeatherDisplay:10.37,2013-04-20 09:51:00,